Time,TemperatureF,DewpointF,PressureIn,WindDirection,WindDirectionDegrees,WindSpeedMPH,WindSpeedGustMPH,Humidity,HourlyPrecipIn,Conditions,Clouds,dailyrainin,SoftwareType,DateUTC
2013-01-18 00:04:00,35.2,25.3,29.79,SW,225,10.9,14.0,67,0.00,CLR,,0.00,WeatherDisplay:10.37,2013-01-18 07:04:00,
2013-01-18 00:09:00,35.4,25.5,29.79,SW,225,12.5,15.0,67,0.00,CLR,,0.00,WeatherDisplay:10.37,2013-01-18 07:09:00,
2013-01-18 00:14:00,35.4,25.5,29.79,SW,225,12.3,15.0,67,0.00,CLR,,0.00,WeatherDisplay:10.37,2013-01-18 07:14:00,
2013-01-18 00:19:00,35.2,25.3,29.79,SW,225,13.5,13.8,67,0.00,CLR,,0.00,WeatherDisplay:10.37,2013-01-18 07:19:00,
2013-01-18 00:24:00,34.7,25.2,29.79,WSW,248,9.4,10.4,68,0.00,CLR,,0.00,WeatherDisplay:10.37,2013-01-18 07:24:00,
2013-01-18 00:29:00,34.3,25.2,29.80,SW,225,9.2,10.4,69,0.00,CLR,,0.00,WeatherDisplay:10.37,2013-01-18 07:29:00,
2013-01-18 00:34:00,33.8,25.0,29.80,West,270,3.6,3.7,70,0.00,CLR,,0.00,WeatherDisplay:10.37,2013-01-18 07:34:00,
2013-01-18 00:39:00,33.6,25.2,29.80,SW,225,6.1,6.9,71,0.00,CLR,,0.00,WeatherDisplay:10.37,2013-01-18 07:39:00,
2013-01-18 00:44:00,33.3,24.9,29.80,SW,225,3.9,4.6,71,0.00,CLR,,0.00,WeatherDisplay:10.37,2013-01-18 07:44:00,
2013-01-18 00:49:00,32.7,24.7,29.80,WSW,248,4.5,5.8,72,0.00,CLR,,0.00,WeatherDisplay:10.37,2013-01-18 07:49:00,
2013-01-18 00:54:00,32.5,24.5,29.79,SW,225,7.2,7.3,72,0.00,CLR,,0.00,WeatherDisplay:10.37,2013-01-18 07:54:00,
2013-01-18 00:59:00,32.5,24.5,29.79,SW,225,6.6,6.9,72,0.00,CLR,,0.00,WeatherDisplay:10.37,2013-01-18 07:59:00,
2013-01-18 01:04:00,32.5,24.8,29.79,West,270,5.8,5.8,73,0.00,CLR,,0.00,WeatherDisplay:10.37,2013-01-18 08:04:00,
2013-01-18 01:09:00,31.5,24.2,29.79,SW,225,5.6,5.8,74,0.00,CLR,,0.00,WeatherDisplay:10.37,2013-01-18 08:09:00,
2013-01-18 01:14:00,31.1,24.1,29.79,SW,225,3.8,4.6,75,0.00,CLR,,0.00,WeatherDisplay:10.37,2013-01-18 08:14:00,
2013-01-18 01:19:00,30.9,23.9,29.79,SW,225,4.1,4.6,75,0.00,CLR,,0.00,WeatherDisplay:10.37,2013-01-18 08:19:00,
2013-01-18 01:24:00,30.9,23.9,29.79,SW,225,3.7,3.7,75,0.00,CLR,,0.00,WeatherDisplay:10.37,2013-01-18 08:24:00,
2013-01-18 01:29:00,30.9,23.9,29.79,South,180,6.1,6.9,75,0.00,CLR,,0.00,WeatherDisplay:10.37,2013-01-18 08:29:00,
2013-01-18 01:34:00,30.6,23.6,29.79,SW,225,5.6,5.8,75,0.00,CLR,,0.00,WeatherDisplay:10.37,2013-01-18 08:34:00,
2013-01-18 01:39:00,30.6,23.6,29.79,SW,225,5.5,5.8,75,0.00,CLR,,0.00,WeatherDisplay:10.37,2013-01-18 08:39:00,
2013-01-18 01:44:00,30.6,23.6,29.79,WSW,248,4.6,5.8,75,0.00,CLR,,0.00,WeatherDisplay:10.37,2013-01-18 08:44:00,
2013-01-18 01:49:00,30.2,23.2,29.79,SW,225,3.5,3.7,75,0.00,CLR,,0.00,WeatherDisplay:10.37,2013-01-18 08:49:00,
2013-01-18 01:54:00,30.0,23.4,29.79,SW,225,3.4,4.6,76,0.00,CLR,,0.00,WeatherDisplay:10.37,2013-01-18 08:54:00,
2013-01-18 01:59:00,30.0,23.4,29.79,WSW,248,3.2,3.7,76,0.00,CLR,,0.00,WeatherDisplay:10.37,2013-01-18 08:59:00,
2013-01-18 02:04:00,30.7,23.7,29.79,SW,225,7.1,7.1,75,0.00,CLR,,0.00,WeatherDisplay:10.37,2013-01-18 09:04:00,
2013-01-18 02:09:00,30.9,23.6,29.79,WSW,248,4.8,5.8,74,0.00,CLR,,0.00,WeatherDisplay:10.37,2013-01-18 09:09:00,
2013-01-18 02:14:00,31.1,23.8,29.79,SW,225,5.4,5.8,74,0.00,CLR,,0.00,WeatherDisplay:10.37,2013-01-18 09:14:00,
2013-01-18 02:19:00,31.1,23.8,29.79,WSW,248,5.3,5.8,74,0.00,CLR,,0.00,WeatherDisplay:10.37,2013-01-18 09:19:00,
2013-01-18 02:24:00,31.1,23.8,29.79,SW,225,5.4,5.8,74,0.00,CLR,,0.00,WeatherDisplay:10.37,2013-01-18 09:24:00,
2013-01-18 02:29:00,30.9,23.6,29.79,WNW,292,1.8,3.5,74,0.00,CLR,,0.00,WeatherDisplay:10.37,2013-01-18 09:29:00,
2013-01-18 02:34:00,30.4,23.4,29.79,WSW,248,1.6,1.7,75,0.00,CLR,,0.00,WeatherDisplay:10.37,2013-01-18 09:34:00,
2013-01-18 02:39:00,30.2,23.5,29.78,WSW,248,2.4,2.7,76,0.00,CLR,,0.00,WeatherDisplay:10.37,2013-01-18 09:39:00,
2013-01-18 02:45:00,30.2,23.5,29.78,SW,225,4.2,4.6,76,0.00,CLR,,0.00,WeatherDisplay:10.37,2013-01-18 09:45:00,
2013-01-18 02:50:00,30.2,23.5,29.78,SW,225,4.2,4.6,76,0.00,CLR,,0.00,WeatherDisplay:10.37,2013-01-18 09:50:00,
2013-01-18 02:55:00,30.4,23.7,29.78,SW,225,6.2,6.9,76,0.00,CLR,,0.00,WeatherDisplay:10.37,2013-01-18 09:55:00,
2013-01-18 03:00:00,30.7,23.7,29.78,SW,225,7.8,8.1,75,0.00,CLR,,0.00,WeatherDisplay:10.37,2013-01-18 10:00:00,
2013-01-18 03:05:00,31.3,24.3,29.78,WSW,248,7.0,10.4,75,0.00,CLR,,0.00,WeatherDisplay:10.37,2013-01-18 10:05:00,
2013-01-18 03:10:00,31.6,24.3,29.78,SW,225,5.5,6.9,74,0.00,CLR,,0.00,WeatherDisplay:10.37,2013-01-18 10:10:00,
2013-01-18 03:15:00,31.8,24.5,29.77,SW,225,6.3,6.9,74,0.00,CLR,,0.00,WeatherDisplay:10.37,2013-01-18 10:15:00,
2013-01-18 03:20:00,32.0,24.6,29.77,SW,225,4.7,5.8,74,0.00,CLR,,0.00,WeatherDisplay:10.37,2013-01-18 10:20:00,
2013-01-18 03:25:00,32.4,25.0,29.77,WSW,248,6.1,10.4,74,0.00,CLR,,0.00,WeatherDisplay:10.37,2013-01-18 10:25:00,
2013-01-18 03:30:00,32.2,24.8,29.78,SW,225,5.1,5.8,74,0.00,CLR,,0.00,WeatherDisplay:10.37,2013-01-18 10:30:00,
2013-01-18 03:35:00,32.0,24.6,29.78,WSW,248,4.7,5.8,74,0.00,CLR,,0.00,WeatherDisplay:10.37,2013-01-18 10:35:00,
2013-01-18 03:40:00,32.0,24.6,29.78,WSW,248,4.8,5.8,74,0.00,CLR,,0.00,WeatherDisplay:10.37,2013-01-18 10:40:00,
2013-01-18 03:45:00,31.8,24.5,29.78,SW,225,2.6,3.5,74,0.00,CLR,,0.00,WeatherDisplay:10.37,2013-01-18 10:45:00,
2013-01-18 03:50:00,31.5,24.5,29.77,SW,225,1.2,1.2,75,0.00,CLR,,0.00,WeatherDisplay:10.37,2013-01-18 10:50:00,
2013-01-18 03:55:00,30.9,23.9,29.77,ESE,112,0.0,1.1,75,0.00,CLR,,0.00,WeatherDisplay:10.37,2013-01-18 10:55:00,
2013-01-18 04:00:00,30.4,24.1,29.77,ESE,112,1.5,1.7,77,0.00,CLR,,0.00,WeatherDisplay:10.37,2013-01-18 11:00:00,
2013-01-18 04:05:00,29.8,23.8,29.77,SW,225,0.8,1.1,78,0.00,CLR,,0.00,WeatherDisplay:10.37,2013-01-18 11:05:00,
2013-01-18 04:10:00,29.7,23.7,29.77,SSW,202,3.4,4.6,78,0.00,CLR,,0.00,WeatherDisplay:10.37,2013-01-18 11:10:00,
2013-01-18 04:15:00,30.0,23.7,29.77,SW,225,4.1,4.6,77,0.00,CLR,,0.00,WeatherDisplay:10.37,2013-01-18 11:15:00,
2013-01-18 04:20:00,30.2,23.9,29.77,SSW,202,4.2,4.6,77,0.00,CLR,,0.00,WeatherDisplay:10.37,2013-01-18 11:20:00,
2013-01-18 04:25:00,30.2,23.9,29.77,SW,225,4.0,4.7,77,0.00,CLR,,0.00,WeatherDisplay:10.37,2013-01-18 11:25:00,
2013-01-18 04:30:00,30.4,24.1,29.76,SW,225,5.0,5.8,77,0.00,CLR,,0.00,WeatherDisplay:10.37,2013-01-18 11:30:00,
2013-01-18 04:35:00,30.6,24.2,29.76,SW,225,5.3,5.8,77,0.00,CLR,,0.00,WeatherDisplay:10.37,2013-01-18 11:35:00,
2013-01-18 04:40:00,30.2,23.9,29.77,SW,225,4.6,4.7,77,0.00,CLR,,0.00,WeatherDisplay:10.37,2013-01-18 11:40:00,
2013-01-18 04:45:00,30.0,23.7,29.77,SW,225,5.1,5.8,77,0.00,CLR,,0.00,WeatherDisplay:10.37,2013-01-18 11:45:00,
2013-01-18 04:50:00,30.2,23.9,29.77,SW,225,6.0,6.9,77,0.00,CLR,,0.00,WeatherDisplay:10.37,2013-01-18 11:50:00,
2013-01-18 04:55:00,30.4,24.1,29.77,WSW,248,6.4,6.9,77,0.00,CLR,,0.00,WeatherDisplay:10.37,2013-01-18 11:55:00,
2013-01-18 05:00:00,30.4,24.1,29.77,WSW,248,8.0,8.1,77,0.00,CLR,,0.00,WeatherDisplay:10.37,2013-01-18 12:00:00,
2013-01-18 05:05:00,29.8,23.8,29.77,West,270,2.2,2.7,78,0.00,CLR,,0.00,WeatherDisplay:10.37,2013-01-18 12:05:00,
2013-01-18 05:10:00,29.5,23.5,29.77,West,270,1.9,2.3,78,0.00,CLR,,0.00,WeatherDisplay:10.37,2013-01-18 12:10:00,
2013-01-18 05:15:00,29.3,23.6,29.77,SW,225,1.7,1.7,79,0.00,CLR,,0.00,WeatherDisplay:10.37,2013-01-18 12:15:00,
2013-01-18 05:20:00,28.9,23.2,29.77,SW,225,0.0,0.0,79,0.00,CLR,,0.00,WeatherDisplay:10.37,2013-01-18 12:20:00,
2013-01-18 05:25:00,28.6,23.5,29.77,NW,315,0.8,1.1,81,0.00,CLR,,0.00,WeatherDisplay:10.37,2013-01-18 12:25:00,
2013-01-18 05:30:00,28.2,23.1,29.77,NE,45,2.5,2.7,81,0.00,CLR,,0.00,WeatherDisplay:10.37,2013-01-18 12:30:00,
2013-01-18 05:35:00,28.0,22.9,29.77,NE,45,2.2,2.7,81,0.00,CLR,,0.00,WeatherDisplay:10.37,2013-01-18 12:35:00,
2013-01-18 05:40:00,28.6,23.8,29.77,NNE,22,2.4,2.4,82,0.00,CLR,,0.00,WeatherDisplay:10.37,2013-01-18 12:40:00,
2013-01-18 05:45:00,28.9,23.8,29.77,WSW,248,4.2,4.6,81,0.00,CLR,,0.00,WeatherDisplay:10.37,2013-01-18 12:45:00,
2013-01-18 05:50:00,29.3,23.3,29.76,WSW,248,6.8,6.9,78,0.00,CLR,,0.00,WeatherDisplay:10.37,2013-01-18 12:50:00,
2013-01-18 05:55:00,28.9,23.2,29.76,WSW,248,7.1,7.3,79,0.00,CLR,,0.00,WeatherDisplay:10.37,2013-01-18 12:55:00,
2013-01-18 06:00:00,28.8,23.1,29.76,SW,225,7.3,8.1,79,0.00,CLR,,0.00,WeatherDisplay:10.37,2013-01-18 13:00:00,
2013-01-18 06:05:00,28.6,22.9,29.76,SW,225,6.8,6.9,79,0.00,CLR,,0.00,WeatherDisplay:10.37,2013-01-18 13:05:00,
2013-01-18 06:10:00,28.6,22.9,29.76,SW,225,7.5,7.5,79,0.00,CLR,,0.00,WeatherDisplay:10.37,2013-01-18 13:10:00,
2013-01-18 06:15:00,28.4,22.7,29.76,WSW,248,5.5,6.9,79,0.00,CLR,,0.00,WeatherDisplay:10.37,2013-01-18 13:15:00,
2013-01-18 06:20:00,28.2,22.8,29.76,WSW,248,5.5,6.3,80,0.00,CLR,,0.00,WeatherDisplay:10.37,2013-01-18 13:20:00,
2013-01-18 06:25:00,28.4,23.0,29.77,SW,225,5.4,5.8,80,0.00,CLR,,0.00,WeatherDisplay:10.37,2013-01-18 13:25:00,
2013-01-18 06:30:00,28.9,23.5,29.77,WSW,248,6.8,7.3,80,0.00,CLR,,0.00,WeatherDisplay:10.37,2013-01-18 13:30:00,
2013-01-18 06:35:00,29.5,23.8,29.77,SW,225,5.1,5.8,79,0.00,CLR,,0.00,WeatherDisplay:10.37,2013-01-18 13:35:00,
2013-01-18 06:40:00,29.3,23.6,29.76,SW,225,5.7,5.8,79,0.00,CLR,,0.00,WeatherDisplay:10.37,2013-01-18 13:40:00,
2013-01-18 06:45:00,29.3,23.6,29.76,WSW,248,6.6,6.9,79,0.00,CLR,,0.00,WeatherDisplay:10.37,2013-01-18 13:45:00,
2013-01-18 06:50:00,28.9,23.2,29.76,WSW,248,2.5,2.7,79,0.00,CLR,,0.00,WeatherDisplay:10.37,2013-01-18 13:50:00,
2013-01-18 06:55:00,28.8,23.4,29.76,West,270,2.0,2.3,80,0.00,CLR,,0.00,WeatherDisplay:10.37,2013-01-18 13:55:00,
2013-01-18 07:00:00,28.4,23.0,29.76,SW,225,2.7,2.7,80,0.00,CLR,,0.00,WeatherDisplay:10.37,2013-01-18 14:00:00,
2013-01-18 07:05:00,28.0,22.6,29.76,SW,225,5.2,5.8,80,0.00,CLR,,0.00,WeatherDisplay:10.37,2013-01-18 14:05:00,
2013-01-18 07:10:00,28.0,22.6,29.76,WSW,248,7.0,7.0,80,0.00,CLR,,0.00,WeatherDisplay:10.37,2013-01-18 14:10:00,
2013-01-18 07:15:00,28.2,22.8,29.77,SW,225,5.5,5.8,80,0.00,CLR,,0.00,WeatherDisplay:10.37,2013-01-18 14:15:00,
2013-01-18 07:20:00,28.2,22.8,29.77,SW,225,8.5,9.2,80,0.00,CLR,,0.00,WeatherDisplay:10.37,2013-01-18 14:20:00,
2013-01-18 07:25:00,28.6,23.2,29.77,SW,225,8.6,9.2,80,0.00,CLR,,0.00,WeatherDisplay:10.37,2013-01-18 14:25:00,
2013-01-18 07:30:00,28.2,22.5,29.77,WSW,248,4.3,5.8,79,0.00,CLR,,0.00,WeatherDisplay:10.37,2013-01-18 14:30:00,
2013-01-18 07:35:00,28.8,23.1,29.77,SW,225,5.4,6.3,79,0.00,CLR,,0.00,WeatherDisplay:10.37,2013-01-18 14:35:00,
2013-01-18 07:40:00,28.8,23.1,29.78,SW,225,6.7,6.9,79,0.00,CLR,,0.00,WeatherDisplay:10.37,2013-01-18 14:40:00,
2013-01-18 07:45:00,29.3,23.3,29.78,SW,225,6.8,8.1,78,0.00,CLR,,0.00,WeatherDisplay:10.37,2013-01-18 14:45:00,
2013-01-18 07:50:00,29.5,23.5,29.78,WSW,248,6.6,6.9,78,0.00,CLR,,0.00,WeatherDisplay:10.37,2013-01-18 14:50:00,
2013-01-18 07:55:00,29.7,23.4,29.78,SW,225,6.0,6.9,77,0.00,CLR,,0.00,WeatherDisplay:10.37,2013-01-18 14:55:00,
2013-01-18 08:00:00,29.8,23.5,29.78,WSW,248,4.6,5.8,77,0.00,CLR,,0.00,WeatherDisplay:10.37,2013-01-18 15:00:00,
2013-01-18 08:05:00,30.6,23.9,29.78,West,270,4.2,4.6,76,0.00,CLR,,0.00,WeatherDisplay:10.37,2013-01-18 15:05:00,
2013-01-18 08:10:00,30.7,23.7,29.78,WSW,248,4.5,4.7,75,0.00,CLR,,0.00,WeatherDisplay:10.37,2013-01-18 15:10:00,
2013-01-18 08:15:00,31.1,23.8,29.78,WSW,248,3.1,4.6,74,0.00,CLR,,0.00,WeatherDisplay:10.37,2013-01-18 15:15:00,
2013-01-18 08:20:00,31.5,24.2,29.78,SW,225,3.7,3.7,74,0.00,CLR,,0.00,WeatherDisplay:10.37,2013-01-18 15:20:00,
2013-01-18 08:25:00,31.5,24.2,29.78,SW,225,3.7,3.7,74,0.00,CLR,,0.00,WeatherDisplay:10.37,2013-01-18 15:25:00,
2013-01-18 08:30:00,31.8,24.1,29.78,SW,225,5.7,8.1,73,0.00,CLR,,0.00,WeatherDisplay:10.37,2013-01-18 15:30:00,
2013-01-18 08:35:00,31.8,24.1,29.78,WSW,248,6.3,8.1,73,0.00,CLR,,0.00,WeatherDisplay:10.37,2013-01-18 15:35:00,
2013-01-18 08:40:00,31.6,23.9,29.78,SW,225,8.1,9.2,73,0.00,CLR,,0.00,WeatherDisplay:10.37,2013-01-18 15:40:00,
2013-01-18 08:45:00,31.8,24.1,29.78,West,270,6.0,6.0,73,0.00,CLR,,0.00,WeatherDisplay:10.37,2013-01-18 15:45:00,
2013-01-18 08:50:00,32.7,24.7,29.79,WSW,248,5.7,6.9,72,0.00,CLR,,0.00,WeatherDisplay:10.37,2013-01-18 15:50:00,
2013-01-18 08:55:00,32.5,24.5,29.79,SSW,202,6.0,6.9,72,0.00,CLR,,0.00,WeatherDisplay:10.37,2013-01-18 15:55:00,
2013-01-18 09:00:00,32.9,24.9,29.79,SW,225,5.8,5.8,72,0.00,CLR,,0.00,WeatherDisplay:10.37,2013-01-18 16:00:00,
2013-01-18 09:05:00,32.9,24.9,29.79,SW,225,6.8,6.9,72,0.00,CLR,,0.00,WeatherDisplay:10.37,2013-01-18 16:05:00,
2013-01-18 09:10:00,33.8,25.0,29.79,WSW,248,6.0,6.8,70,0.00,CLR,,0.00,WeatherDisplay:10.37,2013-01-18 16:10:00,
2013-01-18 09:16:00,34.3,25.5,29.79,WSW,248,5.1,9.2,70,0.00,CLR,,0.00,WeatherDisplay:10.37,2013-01-18 16:16:00,
2013-01-18 09:21:00,34.5,25.4,29.79,West,270,4.8,8.1,69,0.00,CLR,,0.00,WeatherDisplay:10.37,2013-01-18 16:21:00,
2013-01-18 09:26:00,34.7,25.6,29.79,West,270,7.8,8.1,69,0.00,CLR,,0.00,WeatherDisplay:10.37,2013-01-18 16:26:00,
2013-01-18 09:31:00,35.4,25.9,29.79,WSW,248,4.7,5.8,68,0.00,CLR,,0.00,WeatherDisplay:10.37,2013-01-18 16:31:00,
2013-01-18 09:36:00,35.4,25.9,29.79,WSW,248,8.0,8.1,68,0.00,CLR,,0.00,WeatherDisplay:10.37,2013-01-18 16:36:00,
2013-01-18 09:41:00,35.2,25.7,29.79,SW,225,8.4,9.2,68,0.00,CLR,,0.00,WeatherDisplay:10.37,2013-01-18 16:41:00,
2013-01-18 09:46:00,35.8,26.3,29.79,WSW,248,8.4,10.4,68,0.00,CLR,,0.00,WeatherDisplay:10.37,2013-01-18 16:46:00,
2013-01-18 09:51:00,35.8,26.3,29.79,WSW,248,7.5,9.2,68,0.00,CLR,,0.00,WeatherDisplay:10.37,2013-01-18 16:51:00,
2013-01-18 09:56:00,36.3,26.7,29.79,SW,225,8.5,10.4,68,0.00,CLR,,0.00,WeatherDisplay:10.37,2013-01-18 16:56:00,
2013-01-18 10:01:00,36.3,26.4,29.79,WSW,248,9.7,10.4,67,0.00,CLR,,0.00,WeatherDisplay:10.37,2013-01-18 17:01:00,
2013-01-18 10:06:00,36.7,26.8,29.79,WSW,248,6.5,9.2,67,0.00,CLR,,0.00,WeatherDisplay:10.37,2013-01-18 17:06:00,
2013-01-18 10:11:00,37.4,27.1,29.79,SW,225,6.7,8.1,66,0.00,CLR,,0.00,WeatherDisplay:10.37,2013-01-18 17:11:00,
2013-01-18 10:16:00,37.4,27.1,29.79,West,270,6.5,8.1,66,0.00,CLR,,0.00,WeatherDisplay:10.37,2013-01-18 17:16:00,
2013-01-18 10:21:00,37.9,27.2,29.79,SW,225,7.0,9.2,65,0.00,CLR,,0.00,WeatherDisplay:10.37,2013-01-18 17:21:00,
2013-01-18 10:26:00,37.8,27.1,29.78,West,270,8.2,9.2,65,0.00,CLR,,0.00,WeatherDisplay:10.37,2013-01-18 17:26:00,
2013-01-18 10:31:00,37.8,27.5,29.78,WSW,248,8.1,10.4,66,0.00,CLR,,0.00,WeatherDisplay:10.37,2013-01-18 17:31:00,
2013-01-18 10:36:00,37.9,27.5,29.78,SW,225,7.2,8.8,66,0.00,CLR,,0.00,WeatherDisplay:10.37,2013-01-18 17:36:00,
2013-01-18 10:41:00,38.5,27.7,29.78,SW,225,7.7,10.9,65,0.00,CLR,,0.00,WeatherDisplay:10.37,2013-01-18 17:41:00,
2013-01-18 10:46:00,38.8,27.7,29.78,West,270,6.6,9.2,64,0.00,CLR,,0.00,WeatherDisplay:10.37,2013-01-18 17:46:00,
2013-01-18 10:51:00,39.9,28.3,29.77,WNW,292,5.1,5.8,63,0.00,CLR,,0.00,WeatherDisplay:10.37,2013-01-18 17:51:00,
2013-01-18 10:56:00,39.6,27.6,29.77,SSW,202,7.0,8.8,62,0.00,CLR,,0.00,WeatherDisplay:10.37,2013-01-18 17:56:00,
2013-01-18 11:01:00,39.6,28.0,29.77,West,270,6.3,6.9,63,0.00,CLR,,0.00,WeatherDisplay:10.37,2013-01-18 18:01:00,
2013-01-18 11:06:00,40.1,28.1,29.77,SSW,202,5.8,5.8,62,0.00,CLR,,0.00,WeatherDisplay:10.37,2013-01-18 18:06:00,
2013-01-18 11:11:00,40.3,28.3,29.77,SW,225,7.3,8.1,62,0.00,CLR,,0.00,WeatherDisplay:10.37,2013-01-18 18:11:00,
2013-01-18 11:16:00,40.3,28.3,29.77,SW,225,7.3,7.3,62,0.00,CLR,,0.00,WeatherDisplay:10.37,2013-01-18 18:16:00,
2013-01-18 11:21:00,39.6,28.0,29.77,SW,225,10.9,10.9,63,0.00,CLR,,0.00,WeatherDisplay:10.37,2013-01-18 18:21:00,
2013-01-18 11:26:00,39.6,28.0,29.76,SW,225,10.9,10.9,63,0.00,CLR,,0.00,WeatherDisplay:10.37,2013-01-18 18:26:00,
2013-01-18 11:31:00,39.4,28.2,29.76,SW,225,10.4,11.5,64,0.00,CLR,,0.00,WeatherDisplay:10.37,2013-01-18 18:31:00,
2013-01-18 11:36:00,39.4,28.2,29.76,SW,225,10.4,10.4,64,0.00,CLR,,0.00,WeatherDisplay:10.37,2013-01-18 18:36:00,
2013-01-18 11:41:00,39.4,28.2,29.76,WSW,248,7.8,8.1,64,0.00,CLR,,0.00,WeatherDisplay:10.37,2013-01-18 18:41:00,
2013-01-18 11:46:00,39.6,28.4,29.76,SW,225,7.4,8.8,64,0.00,CLR,,0.00,WeatherDisplay:10.37,2013-01-18 18:46:00,
2013-01-18 11:51:00,39.7,28.1,29.76,WSW,248,6.1,6.9,63,0.00,CLR,,0.00,WeatherDisplay:10.37,2013-01-18 18:51:00,
2013-01-18 11:56:00,40.6,28.2,29.76,SW,225,7.5,9.2,61,0.00,CLR,,0.00,WeatherDisplay:10.37,2013-01-18 18:56:00,
2013-01-18 12:01:00,40.8,28.4,29.76,SSW,202,5.2,6.8,61,0.00,CLR,,0.00,WeatherDisplay:10.37,2013-01-18 19:01:00,
2013-01-18 12:06:00,40.6,28.2,29.75,WSW,248,7.7,8.1,61,0.00,CLR,,0.00,WeatherDisplay:10.37,2013-01-18 19:06:00,
2013-01-18 12:11:00,41.0,28.6,29.75,WSW,248,5.1,5.8,61,0.00,CLR,,0.00,WeatherDisplay:10.37,2013-01-18 19:11:00,
2013-01-18 12:16:00,41.9,29.0,29.75,SW,225,3.0,4.6,60,0.00,CLR,,0.00,WeatherDisplay:10.37,2013-01-18 19:16:00,
2013-01-18 12:21:00,41.0,28.6,29.75,WSW,248,7.7,8.8,61,0.00,CLR,,0.00,WeatherDisplay:10.37,2013-01-18 19:21:00,
2013-01-18 12:26:00,41.0,28.6,29.74,SSW,202,8.7,9.2,61,0.00,CLR,,0.00,WeatherDisplay:10.37,2013-01-18 19:26:00,
2013-01-18 12:31:00,40.8,28.4,29.74,WSW,248,4.7,4.7,61,0.00,CLR,,0.00,WeatherDisplay:10.37,2013-01-18 19:31:00,
2013-01-18 12:36:00,41.0,28.6,29.74,WSW,248,4.8,5.3,61,0.00,CLR,,0.00,WeatherDisplay:10.37,2013-01-18 19:36:00,
2013-01-18 12:41:00,41.0,28.6,29.73,SW,225,8.0,8.1,61,0.00,CLR,,0.00,WeatherDisplay:10.37,2013-01-18 19:41:00,
2013-01-18 12:46:00,40.8,28.4,29.73,SW,225,6.0,6.9,61,0.00,CLR,,0.00,WeatherDisplay:10.37,2013-01-18 19:46:00,
2013-01-18 12:51:00,40.8,29.2,29.73,SW,225,5.9,8.1,63,0.00,CLR,,0.00,WeatherDisplay:10.37,2013-01-18 19:51:00,
2013-01-18 12:56:00,41.0,29.4,29.73,SW,225,6.4,6.9,63,0.00,CLR,,0.00,WeatherDisplay:10.37,2013-01-18 19:56:00,
2013-01-18 13:01:00,41.2,29.2,29.73,SW,225,5.6,6.9,62,0.00,CLR,,0.00,WeatherDisplay:10.37,2013-01-18 20:01:00,
2013-01-18 13:06:00,41.4,28.5,29.72,SW,225,7.3,8.3,60,0.00,CLR,,0.00,WeatherDisplay:10.37,2013-01-18 20:06:00,
2013-01-18 13:11:00,41.4,28.5,29.72,SW,225,7.8,8.3,60,0.00,CLR,,0.00,WeatherDisplay:10.37,2013-01-18 20:11:00,
2013-01-18 13:16:00,41.0,28.6,29.72,WSW,248,7.6,9.2,61,0.00,CLR,,0.00,WeatherDisplay:10.37,2013-01-18 20:16:00,
2013-01-18 13:21:00,40.8,28.8,29.72,WSW,248,5.4,6.9,62,0.00,CLR,,0.00,WeatherDisplay:10.37,2013-01-18 20:21:00,
2013-01-18 13:26:00,40.8,28.8,29.72,South,180,5.2,6.3,62,0.00,CLR,,0.00,WeatherDisplay:10.37,2013-01-18 20:26:00,
2013-01-18 13:31:00,41.2,28.8,29.72,SSW,202,4.6,5.8,61,0.00,CLR,,0.00,WeatherDisplay:10.37,2013-01-18 20:31:00,
2013-01-18 13:36:00,41.2,28.8,29.72,WSW,248,6.0,6.9,61,0.00,CLR,,0.00,WeatherDisplay:10.37,2013-01-18 20:36:00,
2013-01-18 13:41:00,41.0,28.6,29.72,SW,225,6.8,7.3,61,0.00,CLR,,0.00,WeatherDisplay:10.37,2013-01-18 20:41:00,
2013-01-18 13:46:00,40.6,28.6,29.72,WSW,248,6.4,9.2,62,0.00,CLR,,0.00,WeatherDisplay:10.37,2013-01-18 20:46:00,
2013-01-18 13:51:00,40.6,28.6,29.72,SW,225,6.7,8.3,62,0.00,CLR,,0.00,WeatherDisplay:10.37,2013-01-18 20:51:00,
2013-01-18 13:56:00,40.8,28.4,29.72,WSW,248,8.3,8.3,61,0.00,CLR,,0.00,WeatherDisplay:10.37,2013-01-18 20:56:00,
2013-01-18 14:01:00,40.5,28.5,29.71,SW,225,7.9,9.2,62,0.00,CLR,,0.00,WeatherDisplay:10.37,2013-01-18 21:01:00,
2013-01-18 14:07:00,40.5,28.5,29.71,SW,225,9.0,10.4,62,0.00,CLR,,0.00,WeatherDisplay:10.37,2013-01-18 21:07:00,
2013-01-18 14:12:00,40.1,28.5,29.71,SW,225,8.1,8.3,63,0.00,CLR,,0.00,WeatherDisplay:10.37,2013-01-18 21:12:00,
2013-01-18 14:17:00,40.1,28.5,29.71,WSW,248,6.8,8.3,63,0.00,CLR,,0.00,WeatherDisplay:10.37,2013-01-18 21:17:00,
2013-01-18 14:22:00,40.1,28.5,29.71,WSW,248,6.4,6.9,63,0.00,CLR,,0.00,WeatherDisplay:10.37,2013-01-18 21:22:00,
2013-01-18 14:27:00,40.3,28.7,29.71,SW,225,9.6,10.4,63,0.00,CLR,,0.00,WeatherDisplay:10.37,2013-01-18 21:27:00,
2013-01-18 14:32:00,40.1,28.5,29.71,SW,225,9.0,10.9,63,0.00,CLR,,0.00,WeatherDisplay:10.37,2013-01-18 21:32:00,
2013-01-18 14:37:00,40.1,28.5,29.71,WSW,248,9.1,10.4,63,0.00,CLR,,0.00,WeatherDisplay:10.37,2013-01-18 21:37:00,
2013-01-18 14:42:00,39.7,28.5,29.71,WSW,248,8.2,9.2,64,0.00,CLR,,0.00,WeatherDisplay:10.37,2013-01-18 21:42:00,
2013-01-18 14:47:00,39.6,28.4,29.71,SW,225,7.2,8.1,64,0.00,CLR,,0.00,WeatherDisplay:10.37,2013-01-18 21:47:00,
2013-01-18 14:52:00,39.7,28.5,29.70,WSW,248,9.0,10.4,64,0.00,CLR,,0.00,WeatherDisplay:10.37,2013-01-18 21:52:00,
2013-01-18 14:57:00,39.6,28.8,29.70,SW,225,9.0,10.4,65,0.00,CLR,,0.00,WeatherDisplay:10.37,2013-01-18 21:57:00,
2013-01-18 15:02:00,39.4,29.0,29.70,SW,225,9.2,10.4,66,0.00,CLR,,0.00,WeatherDisplay:10.37,2013-01-18 22:02:00,
2013-01-18 15:07:00,39.0,29.0,29.70,SW,225,7.5,8.1,67,0.00,CLR,,0.00,WeatherDisplay:10.37,2013-01-18 22:07:00,
2013-01-18 15:12:00,39.0,28.6,29.70,West,270,7.3,7.3,66,0.00,CLR,,0.00,WeatherDisplay:10.37,2013-01-18 22:12:00,
2013-01-18 15:17:00,39.6,28.4,29.71,SW,225,6.8,9.2,64,0.00,CLR,,0.00,WeatherDisplay:10.37,2013-01-18 22:17:00,
2013-01-18 15:22:00,39.6,28.4,29.71,WSW,248,6.1,6.9,64,0.00,CLR,,0.00,WeatherDisplay:10.37,2013-01-18 22:22:00,
2013-01-18 15:27:00,39.6,28.4,29.71,West,270,7.8,9.2,64,0.00,CLR,,0.00,WeatherDisplay:10.37,2013-01-18 22:27:00,
2013-01-18 15:32:00,39.2,28.4,29.71,SW,225,7.0,8.1,65,0.00,CLR,,0.00,WeatherDisplay:10.37,2013-01-18 22:32:00,
2013-01-18 15:37:00,39.0,28.2,29.72,SW,225,4.6,5.8,65,0.00,CLR,,0.00,WeatherDisplay:10.37,2013-01-18 22:37:00,
2013-01-18 15:42:00,39.0,28.6,29.72,SW,225,4.6,5.8,66,0.00,CLR,,0.00,WeatherDisplay:10.37,2013-01-18 22:42:00,
2013-01-18 15:47:00,39.0,28.6,29.72,SW,225,7.1,9.2,66,0.00,CLR,,0.00,WeatherDisplay:10.37,2013-01-18 22:47:00,
2013-01-18 15:52:00,39.0,28.6,29.71,WSW,248,7.8,9.2,66,0.00,CLR,,0.00,WeatherDisplay:10.37,2013-01-18 22:52:00,
2013-01-18 15:57:00,38.8,28.4,29.71,SW,225,7.4,8.1,66,0.00,CLR,,0.00,WeatherDisplay:10.37,2013-01-18 22:57:00,
2013-01-18 16:02:00,38.8,28.4,29.72,SW,225,6.8,7.3,66,0.00,CLR,,0.00,WeatherDisplay:10.37,2013-01-18 23:02:00,
2013-01-18 16:07:00,38.8,28.4,29.72,SW,225,8.3,9.2,66,0.00,CLR,,0.00,WeatherDisplay:10.37,2013-01-18 23:07:00,
2013-01-18 16:12:00,38.8,28.4,29.72,SW,225,8.8,9.9,66,0.00,CLR,,0.00,WeatherDisplay:10.37,2013-01-18 23:12:00,
2013-01-18 16:17:00,39.0,28.6,29.71,SW,225,10.4,10.4,66,0.00,CLR,,0.00,WeatherDisplay:10.37,2013-01-18 23:17:00,
2013-01-18 16:22:00,39.0,28.2,29.71,SW,225,6.4,6.9,65,0.00,CLR,,0.00,WeatherDisplay:10.37,2013-01-18 23:22:00,
2013-01-18 16:27:00,39.0,28.2,29.71,SW,225,4.5,5.8,65,0.00,CLR,,0.00,WeatherDisplay:10.37,2013-01-18 23:27:00,
2013-01-18 16:32:00,38.8,28.4,29.71,SW,225,6.3,8.1,66,0.00,CLR,,0.00,WeatherDisplay:10.37,2013-01-18 23:32:00,
2013-01-18 16:37:00,38.5,28.5,29.71,WSW,248,6.0,6.9,67,0.00,CLR,,0.00,WeatherDisplay:10.37,2013-01-18 23:37:00,
2013-01-18 16:42:00,38.1,28.5,29.71,WSW,248,5.8,6.9,68,0.00,CLR,,0.00,WeatherDisplay:10.37,2013-01-18 23:42:00,
2013-01-18 16:47:00,37.9,28.6,29.71,SW,225,4.1,4.6,69,0.00,CLR,,0.00,WeatherDisplay:10.37,2013-01-18 23:47:00,
2013-01-18 16:52:00,37.9,28.6,29.71,WSW,248,2.9,3.5,69,0.00,CLR,,0.00,WeatherDisplay:10.37,2013-01-18 23:52:00,
2013-01-18 21:08:00,35.6,28.5,29.74,WSW,248,5.7,8.0,75,0.00,CLR,,0.00,WeatherDisplay:10.37,2013-01-19 04:08:00,
2013-01-18 21:13:00,36.1,28.6,29.72,NNW,338,5.7,6.9,74,0.00,CLR,,0.00,WeatherDisplay:10.37,2013-01-19 04:13:00,
2013-01-18 21:18:00,36.1,28.3,29.72,SW,225,4.7,6.9,73,0.00,CLR,,0.00,WeatherDisplay:10.37,2013-01-19 04:18:00,
2013-01-18 21:23:00,36.0,28.2,29.72,WSW,248,4.8,5.8,73,0.00,CLR,,0.00,WeatherDisplay:10.37,2013-01-19 04:23:00,
2013-01-18 21:28:00,36.0,28.5,29.72,SW,225,3.4,4.6,74,0.00,CLR,,0.00,WeatherDisplay:10.37,2013-01-19 04:28:00,
2013-01-18 21:33:00,36.0,28.5,29.72,WSW,248,4.7,5.8,74,0.00,CLR,,0.00,WeatherDisplay:10.37,2013-01-19 04:33:00,
2013-01-18 21:38:00,36.1,28.3,29.73,WSW,248,6.3,8.1,73,0.00,CLR,,0.00,WeatherDisplay:10.37,2013-01-19 04:38:00,
2013-01-18 21:43:00,36.3,28.5,29.73,WSW,248,5.9,5.9,73,0.00,CLR,,0.00,WeatherDisplay:10.37,2013-01-19 04:43:00,
2013-01-18 21:48:00,36.3,28.5,29.73,WSW,248,5.9,5.9,73,0.00,CLR,,0.00,WeatherDisplay:10.37,2013-01-19 04:48:00,
2013-01-18 21:53:00,36.3,28.5,29.73,WSW,248,6.9,8.1,73,0.00,CLR,,0.00,WeatherDisplay:10.37,2013-01-19 04:53:00,
2013-01-18 21:59:00,36.3,28.5,29.73,WSW,248,5.8,5.8,73,0.00,CLR,,0.00,WeatherDisplay:10.37,2013-01-19 04:59:00,
2013-01-18 22:01:00,36.3,28.5,29.73,WSW,248,5.3,6.3,73,0.00,SCT,,0.00,WeatherDisplay:10.37,2013-01-19 05:01:00,
2013-01-18 22:02:00,36.3,28.5,29.73,SW,225,6.0,7.3,73,0.00,SCT,,0.00,WeatherDisplay:10.37,2013-01-19 05:02:00,
2013-01-18 22:03:00,36.3,28.5,29.73,WSW,248,5.9,7.3,73,0.00,SCT,,0.00,WeatherDisplay:10.37,2013-01-19 05:03:00,
2013-01-18 22:08:00,36.1,28.6,29.73,WSW,248,5.9,6.9,74,0.00,SCT,,0.00,WeatherDisplay:10.37,2013-01-19 05:08:00,
2013-01-18 22:14:00,36.1,28.6,29.74,SW,225,5.5,6.9,74,0.00,SCT,,0.00,WeatherDisplay:10.37,2013-01-19 05:14:00,
2013-01-18 22:19:00,36.1,28.6,29.74,SW,225,5.6,7.3,74,0.00,SCT,,0.00,WeatherDisplay:10.37,2013-01-19 05:19:00,
2013-01-18 22:24:00,36.1,28.6,29.74,WNW,292,6.6,8.1,74,0.00,SCT,,0.00,WeatherDisplay:10.37,2013-01-19 05:24:00,
2013-01-18 22:29:00,36.1,28.6,29.74,WSW,248,7.4,9.2,74,0.00,SCT,,0.00,WeatherDisplay:10.37,2013-01-19 05:29:00,
2013-01-18 22:34:00,36.0,28.5,29.74,SW,225,5.3,6.9,74,0.00,SCT,,0.00,WeatherDisplay:10.37,2013-01-19 05:34:00,
2013-01-18 22:39:00,36.0,28.5,29.74,WSW,248,5.8,6.9,74,0.00,SCT,,0.00,WeatherDisplay:10.37,2013-01-19 05:39:00,
2013-01-18 22:44:00,36.0,28.5,29.74,SSW,202,4.6,4.7,74,0.00,SCT,,0.00,WeatherDisplay:10.37,2013-01-19 05:44:00,
2013-01-18 22:49:00,36.0,28.5,29.74,WSW,248,4.8,5.8,74,0.00,SCT,,0.00,WeatherDisplay:10.37,2013-01-19 05:49:00,
2013-01-18 22:54:00,36.0,28.5,29.73,WSW,248,6.9,6.9,74,0.00,SCT,,0.00,WeatherDisplay:10.37,2013-01-19 05:54:00,
2013-01-18 22:59:00,36.1,28.6,29.73,West,270,5.9,9.2,74,0.00,SCT,,0.00,WeatherDisplay:10.37,2013-01-19 05:59:00,
2013-01-18 23:04:00,36.0,28.5,29.74,West,270,6.2,8.8,74,0.00,BKN,,0.00,WeatherDisplay:10.37,2013-01-19 06:04:00,
2013-01-18 23:09:00,35.8,28.6,29.74,South,180,5.2,5.8,75,0.00,BKN,,0.00,WeatherDisplay:10.37,2013-01-19 06:09:00,
2013-01-18 23:14:00,35.6,28.5,29.75,WSW,248,4.8,6.3,75,0.00,BKN,,0.00,WeatherDisplay:10.37,2013-01-19 06:14:00,
2013-01-18 23:19:00,35.4,28.6,29.75,WSW,248,6.1,8.1,76,0.00,BKN,,0.00,WeatherDisplay:10.37,2013-01-19 06:19:00,
2013-01-18 23:24:00,35.4,28.6,29.75,WSW,248,5.6,5.8,76,0.00,BKN,,0.00,WeatherDisplay:10.37,2013-01-19 06:24:00,
2013-01-18 23:29:00,35.4,28.6,29.74,WSW,248,5.0,5.8,76,0.00,BKN,,0.00,WeatherDisplay:10.37,2013-01-19 06:29:00,
2013-01-18 23:34:00,35.2,28.4,29.74,SSW,202,4.9,6.9,76,0.00,BKN,,0.00,WeatherDisplay:10.37,2013-01-19 06:34:00,
2013-01-18 23:39:00,35.2,28.7,29.74,WSW,248,5.1,5.8,77,0.00,BKN,,0.00,WeatherDisplay:10.37,2013-01-19 06:39:00,
2013-01-18 23:44:00,35.2,28.7,29.74,SW,225,6.8,6.9,77,0.00,BKN,,0.00,WeatherDisplay:10.37,2013-01-19 06:44:00,
2013-01-18 23:49:00,35.2,28.7,29.73,WSW,248,5.8,7.3,77,0.00,BKN,,0.00,WeatherDisplay:10.37,2013-01-19 06:49:00,
2013-01-18 23:54:00,35.4,28.6,29.73,WSW,248,6.2,6.9,76,0.00,BKN,,0.00,WeatherDisplay:10.37,2013-01-19 06:54:00,
2013-01-18 23:59:00,35.6,28.5,29.73,WSW,248,9.3,10.4,75,0.00,BKN,,0.00,WeatherDisplay:10.37,2013-01-19 06:59:00,